sensor_id;sensor_type;location;lat;lon;timestamp;P1;durP1;ratioP1;P2;durP2;ratioP2
14292;SDS011;62290;59.420;17.842;2022-11-23T00:01:10;2.17;;;0.80;;
14292;SDS011;62290;59.420;17.842;2022-11-23T00:03:39;0.65;;;0.65;;
14292;SDS011;62290;59.420;17.842;2022-11-23T00:06:07;5.30;;;1.08;;
14292;SDS011;62290;59.420;17.842;2022-11-23T00:08:35;0.88;;;0.70;;
14292;SDS011;62290;59.420;17.842;2022-11-23T00:11:04;0.80;;;0.80;;
14292;SDS011;62290;59.420;17.842;2022-11-23T00:13:33;1.08;;;0.90;;
14292;SDS011;62290;59.420;17.842;2022-11-23T00:16:03;0.95;;;0.70;;
14292;SDS011;62290;59.420;17.842;2022-11-23T00:18:32;0.70;;;0.70;;
14292;SDS011;62290;59.420;17.842;2022-11-23T00:21:04;1.65;;;0.80;;
14292;SDS011;62290;59.420;17.842;2022-11-23T00:23:33;0.88;;;0.80;;
14292;SDS011;62290;59.420;17.842;2022-11-23T00:26:01;1.58;;;0.90;;
14292;SDS011;62290;59.420;17.842;2022-11-23T00:28:31;0.88;;;0.80;;
14292;SDS011;62290;59.420;17.842;2022-11-23T00:31:00;1.23;;;0.75;;
14292;SDS011;62290;59.420;17.842;2022-11-23T00:33:28;0.88;;;0.65;;
14292;SDS011;62290;59.420;17.842;2022-11-23T00:35:59;2.40;;;0.70;;
14292;SDS011;62290;59.420;17.842;2022-11-23T00:38:29;0.70;;;0.68;;
14292;SDS011;62290;59.420;17.842;2022-11-23T00:40:58;0.80;;;0.70;;
14292;SDS011;62290;59.420;17.842;2022-11-23T00:43:27;0.75;;;0.68;;
14292;SDS011;62290;59.420;17.842;2022-11-23T00:46:07;1.17;;;0.60;;
14292;SDS011;62290;59.420;17.842;2022-11-23T00:48:37;1.25;;;0.80;;
14292;SDS011;62290;59.420;17.842;2022-11-23T00:51:05;1.40;;;0.70;;
14292;SDS011;62290;59.420;17.842;2022-11-23T00:53:35;1.90;;;0.70;;
14292;SDS011;62290;59.420;17.842;2022-11-23T00:56:04;0.50;;;0.47;;
14292;SDS011;62290;59.420;17.842;2022-11-23T00:58:33;0.60;;;0.57;;
14292;SDS011;62290;59.420;17.842;2022-11-23T01:01:05;1.67;;;0.55;;
14292;SDS011;62290;59.420;17.842;2022-11-23T01:03:36;1.20;;;0.70;;
14292;SDS011;62290;59.420;17.842;2022-11-23T01:06:06;0.90;;;0.70;;
14292;SDS011;62290;59.420;17.842;2022-11-23T01:08:36;2.05;;;0.60;;
14292;SDS011;62290;59.420;17.842;2022-11-23T01:11:05;0.70;;;0.70;;
14292;SDS011;62290;59.420;17.842;2022-11-23T01:13:34;0.63;;;0.55;;
14292;SDS011;62290;59.420;17.842;2022-11-23T01:16:03;1.35;;;0.70;;
14292;SDS011;62290;59.420;17.842;2022-11-23T01:18:33;1.17;;;0.70;;
14292;SDS011;62290;59.420;17.842;2022-11-23T01:21:01;0.60;;;0.60;;
14292;SDS011;62290;59.420;17.842;2022-11-23T01:23:29;1.23;;;0.77;;
14292;SDS011;62290;59.420;17.842;2022-11-23T01:26:02;0.90;;;0.90;;
14292;SDS011;62290;59.420;17.842;2022-11-23T01:28:31;1.48;;;0.93;;
14292;SDS011;62290;59.420;17.842;2022-11-23T01:31:03;1.05;;;0.80;;
14292;SDS011;62290;59.420;17.842;2022-11-23T01:33:33;4.80;;;0.80;;
14292;SDS011;62290;59.420;17.842;2022-11-23T01:36:07;1.20;;;0.80;;
14292;SDS011;62290;59.420;17.842;2022-11-23T01:38:36;13.48;;;1.10;;
14292;SDS011;62290;59.420;17.842;2022-11-23T01:41:05;1.65;;;0.70;;
14292;SDS011;62290;59.420;17.842;2022-11-23T01:43:33;1.58;;;1.05;;
14292;SDS011;62290;59.420;17.842;2022-11-23T01:46:02;3.97;;;0.95;;
14292;SDS011;62290;59.420;17.842;2022-11-23T01:48:31;1.05;;;0.90;;
14292;SDS011;62290;59.420;17.842;2022-11-23T01:51:04;5.57;;;1.10;;
14292;SDS011;62290;59.420;17.842;2022-11-23T01:53:36;2.58;;;0.75;;
14292;SDS011;62290;59.420;17.842;2022-11-23T01:56:06;3.38;;;1.00;;
14292;SDS011;62290;59.420;17.842;2022-11-23T01:58:39;1.15;;;0.80;;
14292;SDS011;62290;59.420;17.842;2022-11-23T02:01:11;1.85;;;0.90;;
14292;SDS011;62290;59.420;17.842;2022-11-23T02:03:42;1.75;;;0.98;;
14292;SDS011;62290;59.420;17.842;2022-11-23T02:06:14;1.25;;;0.93;;
14292;SDS011;62290;59.420;17.842;2022-11-23T02:08:44;3.95;;;0.90;;
14292;SDS011;62290;59.420;17.842;2022-11-23T02:11:14;1.20;;;0.70;;
14292;SDS011;62290;59.420;17.842;2022-11-23T02:13:44;0.75;;;0.75;;
14292;SDS011;62290;59.420;17.842;2022-11-23T02:16:13;1.02;;;0.80;;
14292;SDS011;62290;59.420;17.842;2022-11-23T02:18:46;2.13;;;0.80;;
14292;SDS011;62290;59.420;17.842;2022-11-23T02:21:18;1.00;;;0.90;;
14292;SDS011;62290;59.420;17.842;2022-11-23T02:23:49;1.33;;;0.95;;
14292;SDS011;62290;59.420;17.842;2022-11-23T02:26:26;2.10;;;0.70;;
14292;SDS011;62290;59.420;17.842;2022-11-23T02:28:57;1.02;;;0.70;;
14292;SDS011;62290;59.420;17.842;2022-11-23T02:31:29;1.10;;;0.90;;
14292;SDS011;62290;59.420;17.842;2022-11-23T02:33:58;2.47;;;0.90;;
14292;SDS011;62290;59.420;17.842;2022-11-23T02:36:28;1.45;;;0.80;;
14292;SDS011;62290;59.420;17.842;2022-11-23T02:39:06;1.88;;;1.10;;
14292;SDS011;62290;59.420;17.842;2022-11-23T02:41:39;1.17;;;0.75;;
14292;SDS011;62290;59.420;17.842;2022-11-23T02:44:11;1.20;;;0.80;;
14292;SDS011;62290;59.420;17.842;2022-11-23T02:46:48;0.90;;;0.80;;
14292;SDS011;62290;59.420;17.842;2022-11-23T02:49:17;1.15;;;0.82;;
14292;SDS011;62290;59.420;17.842;2022-11-23T02:51:45;1.55;;;0.80;;
14292;SDS011;62290;59.420;17.842;2022-11-23T02:54:13;2.10;;;0.80;;
14292;SDS011;62290;59.420;17.842;2022-11-23T02:56:42;1.23;;;0.75;;
14292;SDS011;62290;59.420;17.842;2022-11-23T02:59:11;1.85;;;0.90;;
14292;SDS011;62290;59.420;17.842;2022-11-23T03:01:41;1.05;;;0.80;;
14292;SDS011;62290;59.420;17.842;2022-11-23T03:04:11;1.67;;;0.90;;
14292;SDS011;62290;59.420;17.842;2022-11-23T03:06:40;0.77;;;0.70;;
14292;SDS011;62290;59.420;17.842;2022-11-23T03:09:08;1.35;;;0.80;;
14292;SDS011;62290;59.420;17.842;2022-11-23T03:11:36;1.55;;;0.98;;
14292;SDS011;62290;59.420;17.842;2022-11-23T03:14:05;0.55;;;0.43;;
14292;SDS011;62290;59.420;17.842;2022-11-23T03:16:41;0.70;;;0.70;;
14292;SDS011;62290;59.420;17.842;2022-11-23T03:19:09;1.17;;;0.88;;
14292;SDS011;62290;59.420;17.842;2022-11-23T03:21:37;0.60;;;0.50;;
14292;SDS011;62290;59.420;17.842;2022-11-23T03:24:06;0.55;;;0.52;;
14292;SDS011;62290;59.420;17.842;2022-11-23T03:26:35;1.42;;;0.65;;
14292;SDS011;62290;59.420;17.842;2022-11-23T03:29:09;1.35;;;0.73;;
14292;SDS011;62290;59.420;17.842;2022-11-23T03:31:38;1.75;;;0.60;;
14292;SDS011;62290;59.420;17.842;2022-11-23T03:34:10;0.70;;;0.60;;
14292;SDS011;62290;59.420;17.842;2022-11-23T03:36:39;2.10;;;0.80;;
14292;SDS011;62290;59.420;17.842;2022-11-23T03:39:07;0.70;;;0.70;;
14292;SDS011;62290;59.420;17.842;2022-11-23T03:42:13;0.63;;;0.50;;
14292;SDS011;62290;59.420;17.842;2022-11-23T03:44:44;1.50;;;0.55;;
14292;SDS011;62290;59.420;17.842;2022-11-23T03:47:13;1.15;;;0.80;;
14292;SDS011;62290;59.420;17.842;2022-11-23T03:49:42;1.35;;;0.60;;
14292;SDS011;62290;59.420;17.842;2022-11-23T03:52:10;0.55;;;0.50;;
14292;SDS011;62290;59.420;17.842;2022-11-23T03:54:38;1.00;;;0.90;;
14292;SDS011;62290;59.420;17.842;2022-11-23T03:57:06;0.70;;;0.70;;
14292;SDS011;62290;59.420;17.842;2022-11-23T03:59:34;1.52;;;0.70;;
14292;SDS011;62290;59.420;17.842;2022-11-23T04:02:04;0.95;;;0.73;;
14292;SDS011;62290;59.420;17.842;2022-11-23T04:04:40;0.70;;;0.63;;
14292;SDS011;62290;59.420;17.842;2022-11-23T04:07:22;1.02;;;0.60;;
14292;SDS011;62290;59.420;17.842;2022-11-23T04:09:53;2.22;;;0.93;;
14292;SDS011;62290;59.420;17.842;2022-11-23T04:12:26;0.90;;;0.68;;
14292;SDS011;62290;59.420;17.842;2022-11-23T04:14:54;1.10;;;0.60;;
14292;SDS011;62290;59.420;17.842;2022-11-23T04:17:24;2.38;;;0.65;;
14292;SDS011;62290;59.420;17.842;2022-11-23T04:19:52;1.52;;;0.80;;
14292;SDS011;62290;59.420;17.842;2022-11-23T04:22:20;1.35;;;0.65;;
14292;SDS011;62290;59.420;17.842;2022-11-23T04:24:48;1.13;;;0.80;;
14292;SDS011;62290;59.420;17.842;2022-11-23T04:27:16;0.82;;;0.73;;
14292;SDS011;62290;59.420;17.842;2022-11-23T04:29:44;1.10;;;0.65;;
14292;SDS011;62290;59.420;17.842;2022-11-23T04:32:12;0.98;;;0.75;;
14292;SDS011;62290;59.420;17.842;2022-11-23T04:34:42;1.13;;;0.77;;
14292;SDS011;62290;59.420;17.842;2022-11-23T04:37:11;1.02;;;0.80;;
14292;SDS011;62290;59.420;17.842;2022-11-23T04:39:42;0.60;;;0.60;;
14292;SDS011;62290;59.420;17.842;2022-11-23T04:42:10;1.60;;;0.70;;
14292;SDS011;62290;59.420;17.842;2022-11-23T04:44:45;1.90;;;0.70;;
14292;SDS011;62290;59.420;17.842;2022-11-23T04:47:13;0.90;;;0.77;;
14292;SDS011;62290;59.420;17.842;2022-11-23T04:49:44;0.73;;;0.70;;
14292;SDS011;62290;59.420;17.842;2022-11-23T04:52:13;1.40;;;0.70;;
14292;SDS011;62290;59.420;17.842;2022-11-23T04:54:45;1.58;;;0.82;;
14292;SDS011;62290;59.420;17.842;2022-11-23T04:57:13;1.17;;;0.68;;
14292;SDS011;62290;59.420;17.842;2022-11-23T04:59:42;2.22;;;0.82;;
14292;SDS011;62290;59.420;17.842;2022-11-23T05:02:11;1.25;;;0.70;;
14292;SDS011;62290;59.420;17.842;2022-11-23T05:04:47;0.93;;;0.73;;
14292;SDS011;62290;59.420;17.842;2022-11-23T05:07:17;0.75;;;0.75;;
14292;SDS011;62290;59.420;17.842;2022-11-23T05:09:52;1.77;;;0.82;;
14292;SDS011;62290;59.420;17.842;2022-11-23T05:12:20;0.85;;;0.70;;
14292;SDS011;62290;59.420;17.842;2022-11-23T05:14:49;1.23;;;0.80;;
14292;SDS011;62290;59.420;17.842;2022-11-23T05:17:22;1.25;;;0.80;;
14292;SDS011;62290;59.420;17.842;2022-11-23T05:19:53;2.40;;;0.80;;
14292;SDS011;62290;59.420;17.842;2022-11-23T05:22:22;0.70;;;0.60;;
14292;SDS011;62290;59.420;17.842;2022-11-23T05:24:51;0.77;;;0.57;;
14292;SDS011;62290;59.420;17.842;2022-11-23T05:27:22;0.88;;;0.70;;
14292;SDS011;62290;59.420;17.842;2022-11-23T05:29:50;1.67;;;0.80;;
14292;SDS011;62290;59.420;17.842;2022-11-23T05:32:18;1.58;;;0.70;;
14292;SDS011;62290;59.420;17.842;2022-11-23T05:34:46;0.80;;;0.70;;
14292;SDS011;62290;59.420;17.842;2022-11-23T05:37:17;0.90;;;0.80;;
14292;SDS011;62290;59.420;17.842;2022-11-23T05:39:54;1.83;;;0.98;;
14292;SDS011;62290;59.420;17.842;2022-11-23T05:42:23;0.70;;;0.70;;
14292;SDS011;62290;59.420;17.842;2022-11-23T05:44:54;1.52;;;0.75;;
14292;SDS011;62290;59.420;17.842;2022-11-23T05:47:31;1.67;;;1.00;;
14292;SDS011;62290;59.420;17.842;2022-11-23T05:50:02;1.65;;;0.75;;
14292;SDS011;62290;59.420;17.842;2022-11-23T05:52:33;2.85;;;0.70;;
14292;SDS011;62290;59.420;17.842;2022-11-23T05:55:01;1.95;;;1.00;;
14292;SDS011;62290;59.420;17.842;2022-11-23T05:57:29;2.10;;;0.82;;
14292;SDS011;62290;59.420;17.842;2022-11-23T05:59:57;0.95;;;0.85;;
14292;SDS011;62290;59.420;17.842;2022-11-23T06:02:38;2.35;;;0.80;;
14292;SDS011;62290;59.420;17.842;2022-11-23T06:05:08;0.70;;;0.70;;
14292;SDS011;62290;59.420;17.842;2022-11-23T06:07:46;1.83;;;0.85;;
14292;SDS011;62290;59.420;17.842;2022-11-23T06:10:24;1.05;;;0.70;;
14292;SDS011;62290;59.420;17.842;2022-11-23T06:12:52;1.58;;;0.95;;
14292;SDS011;62290;59.420;17.842;2022-11-23T06:15:21;1.80;;;0.80;;
14292;SDS011;62290;59.420;17.842;2022-11-23T06:17:49;1.38;;;0.73;;
14292;SDS011;62290;59.420;17.842;2022-11-23T06:20:20;2.92;;;0.80;;
14292;SDS011;62290;59.420;17.842;2022-11-23T06:22:58;1.10;;;0.90;;
14292;SDS011;62290;59.420;17.842;2022-11-23T06:25:27;1.15;;;0.90;;
14292;SDS011;62290;59.420;17.842;2022-11-23T06:28:03;2.35;;;0.70;;
14292;SDS011;62290;59.420;17.842;2022-11-23T06:30:44;1.60;;;0.90;;
14292;SDS011;62290;59.420;17.842;2022-11-23T06:33:12;0.80;;;0.80;;
14292;SDS011;62290;59.420;17.842;2022-11-23T06:35:53;1.45;;;0.90;;
14292;SDS011;62290;59.420;17.842;2022-11-23T06:38:26;1.13;;;0.80;;
14292;SDS011;62290;59.420;17.842;2022-11-23T06:41:05;1.23;;;0.95;;
14292;SDS011;62290;59.420;17.842;2022-11-23T06:43:33;1.20;;;0.90;;
14292;SDS011;62290;59.420;17.842;2022-11-23T06:46:02;1.98;;;1.00;;
14292;SDS011;62290;59.420;17.842;2022-11-23T06:48:33;1.10;;;0.90;;
14292;SDS011;62290;59.420;17.842;2022-11-23T06:51:02;1.27;;;1.17;;
14292;SDS011;62290;59.420;17.842;2022-11-23T06:53:31;1.67;;;0.90;;
14292;SDS011;62290;59.420;17.842;2022-11-23T06:56:05;1.52;;;1.13;;
14292;SDS011;62290;59.420;17.842;2022-11-23T06:58:34;1.30;;;0.88;;
14292;SDS011;62290;59.420;17.842;2022-11-23T07:01:07;1.88;;;1.00;;
14292;SDS011;62290;59.420;17.842;2022-11-23T07:04:02;2.13;;;0.90;;
14292;SDS011;62290;59.420;17.842;2022-11-23T07:06:37;0.90;;;0.75;;
14292;SDS011;62290;59.420;17.842;2022-11-23T07:09:15;1.75;;;0.95;;
14292;SDS011;62290;59.420;17.842;2022-11-23T07:11:50;1.50;;;1.08;;
14292;SDS011;62290;59.420;17.842;2022-11-23T07:14:19;1.70;;;1.02;;
14292;SDS011;62290;59.420;17.842;2022-11-23T07:16:49;2.08;;;0.93;;
14292;SDS011;62290;59.420;17.842;2022-11-23T07:19:17;1.23;;;0.90;;
14292;SDS011;62290;59.420;17.842;2022-11-23T07:21:46;1.40;;;1.00;;
14292;SDS011;62290;59.420;17.842;2022-11-23T07:24:17;1.00;;;0.77;;
14292;SDS011;62290;59.420;17.842;2022-11-23T07:26:45;1.42;;;1.00;;
14292;SDS011;62290;59.420;17.842;2022-11-23T07:29:13;2.13;;;1.10;;
14292;SDS011;62290;59.420;17.842;2022-11-23T07:31:41;1.35;;;0.70;;
14292;SDS011;62290;59.420;17.842;2022-11-23T07:34:09;0.90;;;0.73;;
14292;SDS011;62290;59.420;17.842;2022-11-23T07:36:37;2.08;;;1.23;;
14292;SDS011;62290;59.420;17.842;2022-11-23T07:39:05;1.00;;;0.90;;
14292;SDS011;62290;59.420;17.842;2022-11-23T07:41:36;1.35;;;1.10;;
14292;SDS011;62290;59.420;17.842;2022-11-23T07:44:07;1.25;;;0.75;;
14292;SDS011;62290;59.420;17.842;2022-11-23T07:46:35;2.00;;;0.90;;
14292;SDS011;62290;59.420;17.842;2022-11-23T07:49:03;1.77;;;0.90;;
14292;SDS011;62290;59.420;17.842;2022-11-23T07:51:31;0.95;;;0.88;;
14292;SDS011;62290;59.420;17.842;2022-11-23T07:53:59;1.73;;;1.08;;
14292;SDS011;62290;59.420;17.842;2022-11-23T07:56:27;1.98;;;0.93;;
14292;SDS011;62290;59.420;17.842;2022-11-23T07:58:56;1.35;;;0.98;;
14292;SDS011;62290;59.420;17.842;2022-11-23T08:01:24;7.68;;;1.58;;
14292;SDS011;62290;59.420;17.842;2022-11-23T08:03:52;2.08;;;1.08;;
14292;SDS011;62290;59.420;17.842;2022-11-23T08:06:20;12.50;;;1.60;;
14292;SDS011;62290;59.420;17.842;2022-11-23T08:08:48;3.83;;;1.30;;
14292;SDS011;62290;59.420;17.842;2022-11-23T08:11:16;2.55;;;1.38;;
14292;SDS011;62290;59.420;17.842;2022-11-23T08:13:45;3.60;;;1.45;;
14292;SDS011;62290;59.420;17.842;2022-11-23T08:16:15;3.88;;;1.50;;
14292;SDS011;62290;59.420;17.842;2022-11-23T08:18:44;2.28;;;1.58;;
14292;SDS011;62290;59.420;17.842;2022-11-23T08:21:11;7.22;;;1.75;;
14292;SDS011;62290;59.420;17.842;2022-11-23T08:23:39;6.57;;;1.45;;
14292;SDS011;62290;59.420;17.842;2022-11-23T08:26:07;5.50;;;1.83;;
14292;SDS011;62290;59.420;17.842;2022-11-23T08:28:39;3.88;;;1.27;;
14292;SDS011;62290;59.420;17.842;2022-11-23T08:31:07;4.43;;;1.33;;
14292;SDS011;62290;59.420;17.842;2022-11-23T08:33:38;6.03;;;1.67;;
14292;SDS011;62290;59.420;17.842;2022-11-23T08:36:06;2.03;;;1.35;;
14292;SDS011;62290;59.420;17.842;2022-11-23T08:38:35;2.10;;;1.08;;
14292;SDS011;62290;59.420;17.842;2022-11-23T08:41:03;3.55;;;1.30;;
14292;SDS011;62290;59.420;17.842;2022-11-23T08:43:31;3.75;;;1.50;;
14292;SDS011;62290;59.420;17.842;2022-11-23T08:46:00;2.58;;;1.45;;
14292;SDS011;62290;59.420;17.842;2022-11-23T08:48:33;1.42;;;1.00;;
14292;SDS011;62290;59.420;17.842;2022-11-23T08:51:02;3.78;;;1.00;;
14292;SDS011;62290;59.420;17.842;2022-11-23T08:53:31;1.33;;;1.02;;
14292;SDS011;62290;59.420;17.842;2022-11-23T08:56:00;2.45;;;1.23;;
14292;SDS011;62290;59.420;17.842;2022-11-23T08:58:28;1.10;;;1.00;;
14292;SDS011;62290;59.420;17.842;2022-11-23T09:00:56;4.43;;;1.23;;
14292;SDS011;62290;59.420;17.842;2022-11-23T09:03:24;2.20;;;1.00;;
14292;SDS011;62290;59.420;17.842;2022-11-23T09:05:52;2.72;;;1.25;;
14292;SDS011;62290;59.420;17.842;2022-11-23T09:08:21;3.45;;;1.40;;
14292;SDS011;62290;59.420;17.842;2022-11-23T09:10:49;2.40;;;1.05;;
14292;SDS011;62290;59.420;17.842;2022-11-23T09:13:17;2.47;;;1.15;;
14292;SDS011;62290;59.420;17.842;2022-11-23T09:15:45;1.83;;;1.20;;
14292;SDS011;62290;59.420;17.842;2022-11-23T09:18:13;2.88;;;1.27;;
14292;SDS011;62290;59.420;17.842;2022-11-23T09:20:41;1.88;;;1.13;;
14292;SDS011;62290;59.420;17.842;2022-11-23T09:23:09;3.60;;;0.90;;
14292;SDS011;62290;59.420;17.842;2022-11-23T09:25:41;1.30;;;1.10;;
14292;SDS011;62290;59.420;17.842;2022-11-23T09:28:13;3.42;;;1.13;;
14292;SDS011;62290;59.420;17.842;2022-11-23T09:30:41;3.15;;;1.20;;
14292;SDS011;62290;59.420;17.842;2022-11-23T09:33:09;1.02;;;0.93;;
14292;SDS011;62290;59.420;17.842;2022-11-23T09:35:37;3.45;;;1.30;;
14292;SDS011;62290;59.420;17.842;2022-11-23T09:38:09;2.30;;;1.10;;
14292;SDS011;62290;59.420;17.842;2022-11-23T09:40:38;2.05;;;1.20;;
14292;SDS011;62290;59.420;17.842;2022-11-23T09:43:16;3.00;;;0.90;;
14292;SDS011;62290;59.420;17.842;2022-11-23T09:46:03;1.35;;;0.90;;
14292;SDS011;62290;59.420;17.842;2022-11-23T09:48:40;2.50;;;1.23;;
14292;SDS011;62290;59.420;17.842;2022-11-23T09:51:18;7.00;;;0.95;;
14292;SDS011;62290;59.420;17.842;2022-11-23T09:53:48;3.03;;;1.08;;
14292;SDS011;62290;59.420;17.842;2022-11-23T09:56:21;4.57;;;1.60;;
14292;SDS011;62290;59.420;17.842;2022-11-23T09:58:55;4.55;;;1.83;;
14292;SDS011;62290;59.420;17.842;2022-11-23T10:01:24;1.55;;;0.88;;
14292;SDS011;62290;59.420;17.842;2022-11-23T10:03:53;6.28;;;1.40;;
14292;SDS011;62290;59.420;17.842;2022-11-23T10:06:22;3.65;;;1.02;;
14292;SDS011;62290;59.420;17.842;2022-11-23T10:08:56;5.22;;;1.35;;
14292;SDS011;62290;59.420;17.842;2022-11-23T10:14:34;1.00;;;0.90;;
14292;SDS011;62290;59.420;17.842;2022-11-23T10:17:14;2.55;;;0.93;;
14292;SDS011;62290;59.420;17.842;2022-11-23T10:19:56;1.02;;;0.93;;
14292;SDS011;62290;59.420;17.842;2022-11-23T10:22:35;1.10;;;0.98;;
14292;SDS011;62290;59.420;17.842;2022-11-23T10:25:13;1.10;;;0.93;;
14292;SDS011;62290;59.420;17.842;2022-11-23T10:27:43;3.92;;;1.20;;
14292;SDS011;62290;59.420;17.842;2022-11-23T10:30:16;1.13;;;0.98;;
14292;SDS011;62290;59.420;17.842;2022-11-23T10:32:46;3.30;;;1.10;;
14292;SDS011;62290;59.420;17.842;2022-11-23T10:35:21;1.08;;;0.90;;
14292;SDS011;62290;59.420;17.842;2022-11-23T10:37:59;3.75;;;1.27;;
14292;SDS011;62290;59.420;17.842;2022-11-23T10:40:31;2.67;;;0.82;;
14292;SDS011;62290;59.420;17.842;2022-11-23T10:43:00;1.88;;;1.10;;
14292;SDS011;62290;59.420;17.842;2022-11-23T10:45:33;1.40;;;0.80;;
14292;SDS011;62290;59.420;17.842;2022-11-23T10:48:01;2.42;;;1.00;;
14292;SDS011;62290;59.420;17.842;2022-11-23T10:50:29;1.80;;;1.05;;
14292;SDS011;62290;59.420;17.842;2022-11-23T10:53:01;0.95;;;0.80;;
14292;SDS011;62290;59.420;17.842;2022-11-23T10:55:46;1.08;;;0.93;;
14292;SDS011;62290;59.420;17.842;2022-11-23T10:58:22;1.52;;;1.23;;
14292;SDS011;62290;59.420;17.842;2022-11-23T11:01:00;3.88;;;1.10;;
14292;SDS011;62290;59.420;17.842;2022-11-23T11:03:30;3.47;;;1.10;;
14292;SDS011;62290;59.420;17.842;2022-11-23T11:06:00;3.33;;;2.35;;
14292;SDS011;62290;59.420;17.842;2022-11-23T11:08:47;2.58;;;1.40;;
14292;SDS011;62290;59.420;17.842;2022-11-23T11:11:21;15.82;;;7.90;;
14292;SDS011;62290;59.420;17.842;2022-11-23T11:14:00;26.88;;;14.15;;
14292;SDS011;62290;59.420;17.842;2022-11-23T11:16:32;31.73;;;17.40;;
14292;SDS011;62290;59.420;17.842;2022-11-23T11:21:48;19.83;;;8.25;;
14292;SDS011;62290;59.420;17.842;2022-11-23T11:24:17;10.10;;;5.60;;
14292;SDS011;62290;59.420;17.842;2022-11-23T11:26:47;7.50;;;4.00;;
14292;SDS011;62290;59.420;17.842;2022-11-23T11:29:23;8.30;;;4.30;;
14292;SDS011;62290;59.420;17.842;2022-11-23T11:32:07;8.35;;;3.83;;
14292;SDS011;62290;59.420;17.842;2022-11-23T11:34:40;8.98;;;3.05;;
14292;SDS011;62290;59.420;17.842;2022-11-23T11:37:13;5.63;;;2.70;;
14292;SDS011;62290;59.420;17.842;2022-11-23T11:39:50;5.68;;;2.67;;
14292;SDS011;62290;59.420;17.842;2022-11-23T11:42:22;5.22;;;2.63;;
14292;SDS011;62290;59.420;17.842;2022-11-23T11:44:56;2.90;;;1.83;;
14292;SDS011;62290;59.420;17.842;2022-11-23T11:47:30;3.35;;;2.25;;
14292;SDS011;62290;59.420;17.842;2022-11-23T11:50:01;3.47;;;2.00;;
14292;SDS011;62290;59.420;17.842;2022-11-23T11:52:42;4.45;;;2.00;;
14292;SDS011;62290;59.420;17.842;2022-11-23T11:55:13;2.67;;;2.13;;
14292;SDS011;62290;59.420;17.842;2022-11-23T11:57:48;3.22;;;1.90;;
14292;SDS011;62290;59.420;17.842;2022-11-23T12:00:18;4.18;;;2.50;;
14292;SDS011;62290;59.420;17.842;2022-11-23T12:02:50;3.10;;;2.03;;
14292;SDS011;62290;59.420;17.842;2022-11-23T12:05:28;2.72;;;1.65;;
14292;SDS011;62290;59.420;17.842;2022-11-23T12:08:05;7.32;;;1.95;;
14292;SDS011;62290;59.420;17.842;2022-11-23T12:10:38;1.73;;;1.60;;
14292;SDS011;62290;59.420;17.842;2022-11-23T12:13:11;2.95;;;1.50;;
14292;SDS011;62290;59.420;17.842;2022-11-23T12:15:42;3.30;;;1.85;;
14292;SDS011;62290;59.420;17.842;2022-11-23T12:21:30;3.10;;;1.48;;
14292;SDS011;62290;59.420;17.842;2022-11-23T12:24:11;3.75;;;1.63;;
14292;SDS011;62290;59.420;17.842;2022-11-23T12:26:49;2.30;;;1.33;;
14292;SDS011;62290;59.420;17.842;2022-11-23T12:29:25;2.67;;;1.42;;
14292;SDS011;62290;59.420;17.842;2022-11-23T12:32:17;3.95;;;1.50;;
14292;SDS011;62290;59.420;17.842;2022-11-23T12:37:56;1.40;;;1.20;;
14292;SDS011;62290;59.420;17.842;2022-11-23T12:40:41;3.08;;;1.52;;
14292;SDS011;62290;59.420;17.842;2022-11-23T12:43:23;1.30;;;1.15;;
14292;SDS011;62290;59.420;17.842;2022-11-23T12:46:07;1.85;;;1.10;;
14292;SDS011;62290;59.420;17.842;2022-11-23T12:48:44;2.58;;;1.20;;
14292;SDS011;62290;59.420;17.842;2022-11-23T12:51:26;3.92;;;1.17;;
14292;SDS011;62290;59.420;17.842;2022-11-23T12:54:11;2.10;;;1.20;;
14292;SDS011;62290;59.420;17.842;2022-11-23T12:56:57;1.77;;;1.15;;
14292;SDS011;62290;59.420;17.842;2022-11-23T12:59:36;3.10;;;1.27;;
14292;SDS011;62290;59.420;17.842;2022-11-23T13:02:10;2.53;;;1.08;;
14292;SDS011;62290;59.420;17.842;2022-11-23T13:05:00;4.03;;;1.50;;
14292;SDS011;62290;59.420;17.842;2022-11-23T13:07:54;4.05;;;1.48;;
14292;SDS011;62290;59.420;17.842;2022-11-23T13:10:41;2.95;;;1.20;;
14292;SDS011;62290;59.420;17.842;2022-11-23T13:13:22;2.85;;;1.08;;
14292;SDS011;62290;59.420;17.842;2022-11-23T13:16:20;4.45;;;1.25;;
14292;SDS011;62290;59.420;17.842;2022-11-23T13:21:54;3.08;;;1.30;;
14292;SDS011;62290;59.420;17.842;2022-11-23T13:24:23;2.20;;;1.25;;
14292;SDS011;62290;59.420;17.842;2022-11-23T13:30:15;3.45;;;1.38;;
14292;SDS011;62290;59.420;17.842;2022-11-23T13:32:56;1.88;;;1.30;;
14292;SDS011;62290;59.420;17.842;2022-11-23T13:38:28;1.45;;;1.20;;
14292;SDS011;62290;59.420;17.842;2022-11-23T13:41:03;2.63;;;1.38;;
14292;SDS011;62290;59.420;17.842;2022-11-23T13:44:24;1.73;;;1.23;;
14292;SDS011;62290;59.420;17.842;2022-11-23T13:46:55;1.88;;;1.33;;
14292;SDS011;62290;59.420;17.842;2022-11-23T13:49:38;1.52;;;1.20;;
14292;SDS011;62290;59.420;17.842;2022-11-23T13:55:02;2.83;;;1.33;;
14292;SDS011;62290;59.420;17.842;2022-11-23T13:57:45;1.27;;;1.17;;
14292;SDS011;62290;59.420;17.842;2022-11-23T14:00:47;3.35;;;1.55;;
14292;SDS011;62290;59.420;17.842;2022-11-23T14:06:37;2.05;;;1.10;;
14292;SDS011;62290;59.420;17.842;2022-11-23T14:09:14;1.42;;;1.10;;
14292;SDS011;62290;59.420;17.842;2022-11-23T14:11:51;1.10;;;1.00;;
14292;SDS011;62290;59.420;17.842;2022-11-23T14:14:26;2.08;;;1.20;;
14292;SDS011;62290;59.420;17.842;2022-11-23T14:20:26;1.85;;;1.05;;
14292;SDS011;62290;59.420;17.842;2022-11-23T14:23:15;1.45;;;1.17;;
14292;SDS011;62290;59.420;17.842;2022-11-23T14:25:57;1.17;;;0.90;;
14292;SDS011;62290;59.420;17.842;2022-11-23T14:28:43;3.67;;;1.00;;
14292;SDS011;62290;59.420;17.842;2022-11-23T14:31:26;2.45;;;1.10;;
14292;SDS011;62290;59.420;17.842;2022-11-23T14:34:09;1.95;;;0.98;;
14292;SDS011;62290;59.420;17.842;2022-11-23T14:36:51;4.53;;;1.55;;
14292;SDS011;62290;59.420;17.842;2022-11-23T14:42:20;1.73;;;1.20;;
14292;SDS011;62290;59.420;17.842;2022-11-23T14:44:50;1.50;;;1.00;;
14292;SDS011;62290;59.420;17.842;2022-11-23T14:47:29;2.35;;;0.85;;
14292;SDS011;62290;59.420;17.842;2022-11-23T14:49:58;1.02;;;0.90;;
14292;SDS011;62290;59.420;17.842;2022-11-23T14:52:28;2.60;;;1.05;;
14292;SDS011;62290;59.420;17.842;2022-11-23T14:55:00;14.30;;;1.77;;
14292;SDS011;62290;59.420;17.842;2022-11-23T14:57:34;1.55;;;1.10;;
14292;SDS011;62290;59.420;17.842;2022-11-23T15:00:19;1.33;;;1.05;;
14292;SDS011;62290;59.420;17.842;2022-11-23T15:02:51;3.25;;;1.10;;
14292;SDS011;62290;59.420;17.842;2022-11-23T15:05:20;1.50;;;1.17;;
14292;SDS011;62290;59.420;17.842;2022-11-23T15:07:55;1.60;;;1.30;;
14292;SDS011;62290;59.420;17.842;2022-11-23T15:10:37;1.55;;;1.10;;
14292;SDS011;62290;59.420;17.842;2022-11-23T15:13:16;1.58;;;0.95;;
14292;SDS011;62290;59.420;17.842;2022-11-23T15:15:51;1.50;;;1.02;;
14292;SDS011;62290;59.420;17.842;2022-11-23T15:18:27;2.50;;;1.00;;
14292;SDS011;62290;59.420;17.842;2022-11-23T15:20:57;3.45;;;1.58;;
14292;SDS011;62290;59.420;17.842;2022-11-23T15:23:32;1.83;;;1.00;;
14292;SDS011;62290;59.420;17.842;2022-11-23T15:26:03;2.17;;;1.40;;
14292;SDS011;62290;59.420;17.842;2022-11-23T15:28:34;4.72;;;1.25;;
14292;SDS011;62290;59.420;17.842;2022-11-23T15:33:57;5.70;;;1.85;;
14292;SDS011;62290;59.420;17.842;2022-11-23T15:36:27;13.73;;;2.05;;
14292;SDS011;62290;59.420;17.842;2022-11-23T15:38:59;9.10;;;1.85;;
14292;SDS011;62290;59.420;17.842;2022-11-23T15:41:28;7.25;;;1.63;;